sensor_id;sensor_type;location;lat;lon;timestamp;P1;durP1;ratioP1;P2;durP2;ratioP2
43857;SDS011;29507;51.284;5.758;2022-11-12T00:00:21;13.27;;;6.20;;
43857;SDS011;29507;51.284;5.758;2022-11-12T00:02:47;17.45;;;7.38;;
43857;SDS011;29507;51.284;5.758;2022-11-12T00:05:12;13.90;;;6.35;;
43857;SDS011;29507;51.284;5.758;2022-11-12T00:07:38;13.52;;;6.57;;
43857;SDS011;29507;51.284;5.758;2022-11-12T00:10:04;10.95;;;6.00;;
43857;SDS011;29507;51.284;5.758;2022-11-12T00:12:30;12.55;;;5.68;;
43857;SDS011;29507;51.284;5.758;2022-11-12T00:14:56;12.85;;;6.90;;
43857;SDS011;29507;51.284;5.758;2022-11-12T00:17:22;12.13;;;6.22;;
43857;SDS011;29507;51.284;5.758;2022-11-12T00:19:47;14.40;;;6.13;;
43857;SDS011;29507;51.284;5.758;2022-11-12T00:22:13;12.07;;;5.80;;
43857;SDS011;29507;51.284;5.758;2022-11-12T00:24:39;15.52;;;6.80;;
43857;SDS011;29507;51.284;5.758;2022-11-12T00:27:05;19.90;;;7.25;;
43857;SDS011;29507;51.284;5.758;2022-11-12T00:29:30;12.18;;;6.82;;
43857;SDS011;29507;51.284;5.758;2022-11-12T00:31:56;14.48;;;7.07;;
43857;SDS011;29507;51.284;5.758;2022-11-12T00:34:21;13.32;;;7.22;;
43857;SDS011;29507;51.284;5.758;2022-11-12T00:36:47;16.85;;;8.30;;
43857;SDS011;29507;51.284;5.758;2022-11-12T00:39:13;18.02;;;8.00;;
43857;SDS011;29507;51.284;5.758;2022-11-12T00:41:38;16.13;;;8.90;;
43857;SDS011;29507;51.284;5.758;2022-11-12T00:44:04;15.23;;;7.85;;
43857;SDS011;29507;51.284;5.758;2022-11-12T00:46:30;13.63;;;6.95;;
43857;SDS011;29507;51.284;5.758;2022-11-12T00:48:55;20.05;;;7.05;;
43857;SDS011;29507;51.284;5.758;2022-11-12T00:51:21;13.38;;;6.30;;
43857;SDS011;29507;51.284;5.758;2022-11-12T00:53:47;15.55;;;7.10;;
43857;SDS011;29507;51.284;5.758;2022-11-12T00:56:14;16.55;;;7.30;;
43857;SDS011;29507;51.284;5.758;2022-11-12T00:58:40;14.30;;;6.43;;
43857;SDS011;29507;51.284;5.758;2022-11-12T01:01:10;13.98;;;6.95;;
43857;SDS011;29507;51.284;5.758;2022-11-12T01:03:38;11.15;;;5.85;;
43857;SDS011;29507;51.284;5.758;2022-11-12T01:06:16;13.27;;;7.32;;
43857;SDS011;29507;51.284;5.758;2022-11-12T01:08:44;12.68;;;6.38;;
43857;SDS011;29507;51.284;5.758;2022-11-12T01:11:22;16.83;;;6.57;;
43857;SDS011;29507;51.284;5.758;2022-11-12T01:13:54;15.07;;;6.50;;
43857;SDS011;29507;51.284;5.758;2022-11-12T01:16:22;17.45;;;7.30;;
43857;SDS011;29507;51.284;5.758;2022-11-12T01:18:53;14.70;;;5.93;;
43857;SDS011;29507;51.284;5.758;2022-11-12T01:21:21;17.10;;;6.55;;
43857;SDS011;29507;51.284;5.758;2022-11-12T01:23:48;13.43;;;6.63;;
43857;SDS011;29507;51.284;5.758;2022-11-12T01:26:15;15.25;;;6.72;;
43857;SDS011;29507;51.284;5.758;2022-11-12T01:28:42;16.52;;;5.90;;
43857;SDS011;29507;51.284;5.758;2022-11-12T01:31:18;15.85;;;6.60;;
43857;SDS011;29507;51.284;5.758;2022-11-12T01:33:46;12.48;;;6.15;;
43857;SDS011;29507;51.284;5.758;2022-11-12T01:36:14;11.80;;;6.25;;
43857;SDS011;29507;51.284;5.758;2022-11-12T01:38:44;14.18;;;7.18;;
43857;SDS011;29507;51.284;5.758;2022-11-12T01:41:13;12.05;;;6.03;;
43857;SDS011;29507;51.284;5.758;2022-11-12T01:43:41;13.70;;;6.07;;
43857;SDS011;29507;51.284;5.758;2022-11-12T01:46:16;13.75;;;6.35;;
43857;SDS011;29507;51.284;5.758;2022-11-12T01:48:51;12.98;;;6.10;;
43857;SDS011;29507;51.284;5.758;2022-11-12T01:51:20;11.65;;;6.10;;
43857;SDS011;29507;51.284;5.758;2022-11-12T01:53:49;14.10;;;5.15;;
43857;SDS011;29507;51.284;5.758;2022-11-12T01:56:17;17.08;;;5.63;;
43857;SDS011;29507;51.284;5.758;2022-11-12T01:58:44;9.10;;;5.10;;
43857;SDS011;29507;51.284;5.758;2022-11-12T02:01:13;11.73;;;5.38;;
43857;SDS011;29507;51.284;5.758;2022-11-12T02:03:38;12.38;;;5.45;;
43857;SDS011;29507;51.284;5.758;2022-11-12T02:06:05;12.70;;;5.43;;
43857;SDS011;29507;51.284;5.758;2022-11-12T02:08:33;10.30;;;5.70;;
43857;SDS011;29507;51.284;5.758;2022-11-12T02:11:34;12.82;;;5.68;;
43857;SDS011;29507;51.284;5.758;2022-11-12T02:13:53;17.25;;;5.75;;
43857;SDS011;29507;51.284;5.758;2022-11-12T02:16:22;13.68;;;6.28;;
43857;SDS011;29507;51.284;5.758;2022-11-12T02:18:49;15.15;;;7.25;;
43857;SDS011;29507;51.284;5.758;2022-11-12T02:21:17;14.05;;;6.22;;
43857;SDS011;29507;51.284;5.758;2022-11-12T02:23:55;21.65;;;6.95;;
43857;SDS011;29507;51.284;5.758;2022-11-12T02:26:30;23.17;;;7.78;;
43857;SDS011;29507;51.284;5.758;2022-11-12T02:28:58;17.88;;;7.88;;
43857;SDS011;29507;51.284;5.758;2022-11-12T02:31:24;15.30;;;7.18;;
43857;SDS011;29507;51.284;5.758;2022-11-12T02:33:50;13.35;;;6.03;;
43857;SDS011;29507;51.284;5.758;2022-11-12T02:36:16;15.07;;;6.20;;
43857;SDS011;29507;51.284;5.758;2022-11-12T02:38:41;13.52;;;6.28;;
43857;SDS011;29507;51.284;5.758;2022-11-12T02:41:07;13.85;;;6.70;;
43857;SDS011;29507;51.284;5.758;2022-11-12T02:43:33;12.43;;;5.72;;
43857;SDS011;29507;51.284;5.758;2022-11-12T02:45:58;15.93;;;6.35;;
43857;SDS011;29507;51.284;5.758;2022-11-12T02:48:24;14.52;;;6.10;;
43857;SDS011;29507;51.284;5.758;2022-11-12T02:50:50;12.60;;;6.28;;
43857;SDS011;29507;51.284;5.758;2022-11-12T02:53:15;11.02;;;5.05;;
43857;SDS011;29507;51.284;5.758;2022-11-12T02:55:41;15.70;;;5.95;;
43857;SDS011;29507;51.284;5.758;2022-11-12T02:58:07;13.40;;;5.82;;
43857;SDS011;29507;51.284;5.758;2022-11-12T03:00:33;17.80;;;6.30;;
43857;SDS011;29507;51.284;5.758;2022-11-12T03:02:59;14.13;;;6.55;;
43857;SDS011;29507;51.284;5.758;2022-11-12T03:05:26;13.25;;;6.47;;
43857;SDS011;29507;51.284;5.758;2022-11-12T03:07:58;14.43;;;6.07;;
43857;SDS011;29507;51.284;5.758;2022-11-12T03:10:25;11.65;;;5.85;;
43857;SDS011;29507;51.284;5.758;2022-11-12T03:12:52;12.93;;;5.90;;
43857;SDS011;29507;51.284;5.758;2022-11-12T03:15:19;10.77;;;5.60;;
43857;SDS011;29507;51.284;5.758;2022-11-12T03:17:45;12.43;;;6.32;;
43857;SDS011;29507;51.284;5.758;2022-11-12T03:20:11;12.52;;;5.68;;
43857;SDS011;29507;51.284;5.758;2022-11-12T03:22:37;14.20;;;5.50;;
43857;SDS011;29507;51.284;5.758;2022-11-12T03:25:04;13.07;;;5.50;;
43857;SDS011;29507;51.284;5.758;2022-11-12T03:27:30;11.05;;;6.78;;
43857;SDS011;29507;51.284;5.758;2022-11-12T03:29:56;13.30;;;5.57;;
43857;SDS011;29507;51.284;5.758;2022-11-12T03:32:22;14.32;;;6.68;;
43857;SDS011;29507;51.284;5.758;2022-11-12T03:34:47;11.13;;;6.28;;
43857;SDS011;29507;51.284;5.758;2022-11-12T03:37:13;14.85;;;6.70;;
43857;SDS011;29507;51.284;5.758;2022-11-12T03:39:39;13.00;;;6.63;;
43857;SDS011;29507;51.284;5.758;2022-11-12T03:42:05;13.40;;;6.60;;
43857;SDS011;29507;51.284;5.758;2022-11-12T03:44:30;10.90;;;5.50;;
43857;SDS011;29507;51.284;5.758;2022-11-12T03:46:56;11.88;;;5.28;;
43857;SDS011;29507;51.284;5.758;2022-11-12T03:49:22;14.32;;;5.63;;
43857;SDS011;29507;51.284;5.758;2022-11-12T03:51:47;15.50;;;5.53;;
43857;SDS011;29507;51.284;5.758;2022-11-12T03:54:13;10.73;;;5.28;;
43857;SDS011;29507;51.284;5.758;2022-11-12T03:56:38;14.55;;;5.80;;
43857;SDS011;29507;51.284;5.758;2022-11-12T03:59:04;9.32;;;5.25;;
43857;SDS011;29507;51.284;5.758;2022-11-12T04:01:30;9.30;;;5.13;;
43857;SDS011;29507;51.284;5.758;2022-11-12T04:03:56;12.10;;;5.80;;
43857;SDS011;29507;51.284;5.758;2022-11-12T04:06:22;9.88;;;4.93;;
43857;SDS011;29507;51.284;5.758;2022-11-12T04:09:06;12.10;;;5.38;;
43857;SDS011;29507;51.284;5.758;2022-11-12T04:11:32;11.40;;;5.65;;
43857;SDS011;29507;51.284;5.758;2022-11-12T04:13:58;11.73;;;5.47;;
43857;SDS011;29507;51.284;5.758;2022-11-12T04:16:24;14.00;;;5.85;;
43857;SDS011;29507;51.284;5.758;2022-11-12T04:19:09;13.90;;;6.55;;
43857;SDS011;29507;51.284;5.758;2022-11-12T04:24:26;10.65;;;5.15;;
43857;SDS011;29507;51.284;5.758;2022-11-12T04:29:53;13.57;;;5.70;;
43857;SDS011;29507;51.284;5.758;2022-11-12T04:32:39;12.70;;;6.45;;
43857;SDS011;29507;51.284;5.758;2022-11-12T04:35:25;14.90;;;6.10;;
43857;SDS011;29507;51.284;5.758;2022-11-12T04:37:51;12.52;;;6.32;;
43857;SDS011;29507;51.284;5.758;2022-11-12T04:40:20;13.52;;;6.00;;
43857;SDS011;29507;51.284;5.758;2022-11-12T04:43:10;15.02;;;5.55;;
43857;SDS011;29507;51.284;5.758;2022-11-12T04:45:56;11.68;;;5.63;;
43857;SDS011;29507;51.284;5.758;2022-11-12T04:48:23;12.18;;;5.88;;
43857;SDS011;29507;51.284;5.758;2022-11-12T04:50:52;19.00;;;6.60;;
43857;SDS011;29507;51.284;5.758;2022-11-12T04:53:20;14.02;;;6.10;;
43857;SDS011;29507;51.284;5.758;2022-11-12T04:55:53;12.63;;;6.20;;
43857;SDS011;29507;51.284;5.758;2022-11-12T04:58:20;13.85;;;6.53;;
43857;SDS011;29507;51.284;5.758;2022-11-12T05:00:46;14.05;;;6.60;;
43857;SDS011;29507;51.284;5.758;2022-11-12T05:03:13;18.02;;;7.93;;
43857;SDS011;29507;51.284;5.758;2022-11-12T05:05:38;13.73;;;6.95;;
43857;SDS011;29507;51.284;5.758;2022-11-12T05:08:04;12.30;;;7.13;;
43857;SDS011;29507;51.284;5.758;2022-11-12T05:10:30;16.98;;;6.85;;
43857;SDS011;29507;51.284;5.758;2022-11-12T05:12:56;16.05;;;6.43;;
43857;SDS011;29507;51.284;5.758;2022-11-12T05:15:21;16.00;;;6.45;;
43857;SDS011;29507;51.284;5.758;2022-11-12T05:17:47;13.18;;;6.75;;
43857;SDS011;29507;51.284;5.758;2022-11-12T05:20:14;12.25;;;5.70;;
43857;SDS011;29507;51.284;5.758;2022-11-12T05:22:41;10.13;;;5.32;;
43857;SDS011;29507;51.284;5.758;2022-11-12T05:25:07;10.98;;;6.43;;
43857;SDS011;29507;51.284;5.758;2022-11-12T05:27:33;11.20;;;5.15;;
43857;SDS011;29507;51.284;5.758;2022-11-12T05:29:59;12.15;;;5.45;;
43857;SDS011;29507;51.284;5.758;2022-11-12T05:32:25;9.30;;;5.45;;
43857;SDS011;29507;51.284;5.758;2022-11-12T05:34:51;10.52;;;4.95;;
43857;SDS011;29507;51.284;5.758;2022-11-12T05:37:17;10.52;;;6.13;;
43857;SDS011;29507;51.284;5.758;2022-11-12T05:39:42;12.73;;;5.50;;
43857;SDS011;29507;51.284;5.758;2022-11-12T05:42:08;14.07;;;5.97;;
43857;SDS011;29507;51.284;5.758;2022-11-12T05:44:33;11.30;;;5.45;;
43857;SDS011;29507;51.284;5.758;2022-11-12T05:46:59;11.48;;;5.40;;
43857;SDS011;29507;51.284;5.758;2022-11-12T05:49:24;11.30;;;5.20;;
43857;SDS011;29507;51.284;5.758;2022-11-12T05:51:50;12.77;;;5.28;;
43857;SDS011;29507;51.284;5.758;2022-11-12T05:54:16;14.65;;;5.40;;
43857;SDS011;29507;51.284;5.758;2022-11-12T05:56:42;12.38;;;5.00;;
43857;SDS011;29507;51.284;5.758;2022-11-12T05:59:10;12.30;;;6.05;;
43857;SDS011;29507;51.284;5.758;2022-11-12T06:04:14;14.52;;;5.32;;
43857;SDS011;29507;51.284;5.758;2022-11-12T06:06:40;10.13;;;5.15;;
43857;SDS011;29507;51.284;5.758;2022-11-12T06:09:06;10.80;;;5.53;;
43857;SDS011;29507;51.284;5.758;2022-11-12T06:11:33;9.10;;;5.03;;
43857;SDS011;29507;51.284;5.758;2022-11-12T06:13:59;11.35;;;5.28;;
43857;SDS011;29507;51.284;5.758;2022-11-12T06:16:25;13.10;;;5.63;;
43857;SDS011;29507;51.284;5.758;2022-11-12T06:18:51;13.32;;;4.88;;
43857;SDS011;29507;51.284;5.758;2022-11-12T06:21:17;11.50;;;4.75;;
43857;SDS011;29507;51.284;5.758;2022-11-12T06:23:52;10.35;;;4.65;;
43857;SDS011;29507;51.284;5.758;2022-11-12T06:26:22;7.88;;;4.60;;
43857;SDS011;29507;51.284;5.758;2022-11-12T06:28:49;8.05;;;4.10;;
43857;SDS011;29507;51.284;5.758;2022-11-12T06:31:15;14.95;;;5.22;;
43857;SDS011;29507;51.284;5.758;2022-11-12T06:33:42;10.20;;;5.40;;
43857;SDS011;29507;51.284;5.758;2022-11-12T06:36:09;11.00;;;5.07;;
43857;SDS011;29507;51.284;5.758;2022-11-12T06:38:36;11.93;;;5.60;;
43857;SDS011;29507;51.284;5.758;2022-11-12T06:41:04;12.00;;;5.40;;
43857;SDS011;29507;51.284;5.758;2022-11-12T06:43:32;12.88;;;5.20;;
43857;SDS011;29507;51.284;5.758;2022-11-12T06:45:59;13.18;;;5.50;;
43857;SDS011;29507;51.284;5.758;2022-11-12T06:48:26;11.38;;;5.15;;
43857;SDS011;29507;51.284;5.758;2022-11-12T06:50:52;13.20;;;5.47;;
43857;SDS011;29507;51.284;5.758;2022-11-12T06:53:17;15.95;;;6.28;;
43857;SDS011;29507;51.284;5.758;2022-11-12T06:55:43;14.50;;;5.57;;
43857;SDS011;29507;51.284;5.758;2022-11-12T06:58:09;11.98;;;5.75;;
43857;SDS011;29507;51.284;5.758;2022-11-12T07:00:34;11.75;;;5.45;;
43857;SDS011;29507;51.284;5.758;2022-11-12T07:03:04;11.48;;;6.00;;
43857;SDS011;29507;51.284;5.758;2022-11-12T07:05:37;13.68;;;6.03;;
43857;SDS011;29507;51.284;5.758;2022-11-12T07:08:03;13.05;;;5.78;;
43857;SDS011;29507;51.284;5.758;2022-11-12T07:10:30;12.13;;;5.85;;
43857;SDS011;29507;51.284;5.758;2022-11-12T07:12:56;9.35;;;5.00;;
43857;SDS011;29507;51.284;5.758;2022-11-12T07:15:21;13.63;;;5.97;;
43857;SDS011;29507;51.284;5.758;2022-11-12T07:17:47;15.13;;;7.07;;
43857;SDS011;29507;51.284;5.758;2022-11-12T07:20:13;17.92;;;9.95;;
43857;SDS011;29507;51.284;5.758;2022-11-12T07:22:38;16.42;;;8.25;;
43857;SDS011;29507;51.284;5.758;2022-11-12T07:25:04;17.13;;;7.38;;
43857;SDS011;29507;51.284;5.758;2022-11-12T07:27:30;12.32;;;7.45;;
43857;SDS011;29507;51.284;5.758;2022-11-12T07:29:56;16.80;;;7.32;;
43857;SDS011;29507;51.284;5.758;2022-11-12T07:32:22;23.27;;;8.05;;
43857;SDS011;29507;51.284;5.758;2022-11-12T07:34:47;14.43;;;7.68;;
43857;SDS011;29507;51.284;5.758;2022-11-12T07:37:14;14.75;;;7.85;;
43857;SDS011;29507;51.284;5.758;2022-11-12T07:39:40;20.60;;;7.70;;
43857;SDS011;29507;51.284;5.758;2022-11-12T07:42:05;16.40;;;7.93;;
43857;SDS011;29507;51.284;5.758;2022-11-12T07:44:31;16.33;;;7.40;;
43857;SDS011;29507;51.284;5.758;2022-11-12T07:46:57;15.35;;;8.50;;
43857;SDS011;29507;51.284;5.758;2022-11-12T07:49:22;15.70;;;7.85;;
43857;SDS011;29507;51.284;5.758;2022-11-12T07:51:48;18.40;;;7.80;;
43857;SDS011;29507;51.284;5.758;2022-11-12T07:54:14;18.13;;;8.27;;
43857;SDS011;29507;51.284;5.758;2022-11-12T07:56:39;15.40;;;7.65;;
43857;SDS011;29507;51.284;5.758;2022-11-12T07:59:05;17.33;;;8.02;;
43857;SDS011;29507;51.284;5.758;2022-11-12T08:01:38;19.88;;;8.63;;
43857;SDS011;29507;51.284;5.758;2022-11-12T08:04:08;17.15;;;7.88;;
43857;SDS011;29507;51.284;5.758;2022-11-12T08:06:36;15.68;;;7.65;;
43857;SDS011;29507;51.284;5.758;2022-11-12T08:09:03;15.00;;;7.38;;
43857;SDS011;29507;51.284;5.758;2022-11-12T08:11:30;19.47;;;6.80;;
43857;SDS011;29507;51.284;5.758;2022-11-12T08:13:56;17.38;;;7.72;;
43857;SDS011;29507;51.284;5.758;2022-11-12T08:16:22;18.13;;;8.35;;
43857;SDS011;29507;51.284;5.758;2022-11-12T08:18:48;19.27;;;8.20;;
43857;SDS011;29507;51.284;5.758;2022-11-12T08:21:15;16.08;;;7.97;;
43857;SDS011;29507;51.284;5.758;2022-11-12T08:23:41;19.77;;;7.95;;
43857;SDS011;29507;51.284;5.758;2022-11-12T08:26:08;19.70;;;7.20;;
43857;SDS011;29507;51.284;5.758;2022-11-12T08:28:37;18.45;;;7.72;;
43857;SDS011;29507;51.284;5.758;2022-11-12T08:31:04;17.38;;;8.23;;
43857;SDS011;29507;51.284;5.758;2022-11-12T08:33:32;18.83;;;7.60;;
43857;SDS011;29507;51.284;5.758;2022-11-12T08:35:57;18.20;;;7.75;;
43857;SDS011;29507;51.284;5.758;2022-11-12T08:38:26;21.15;;;7.20;;
43857;SDS011;29507;51.284;5.758;2022-11-12T08:40:52;15.65;;;7.32;;
43857;SDS011;29507;51.284;5.758;2022-11-12T08:43:17;15.93;;;8.05;;
43857;SDS011;29507;51.284;5.758;2022-11-12T08:45:43;19.17;;;8.15;;
43857;SDS011;29507;51.284;5.758;2022-11-12T08:48:10;16.65;;;8.52;;
43857;SDS011;29507;51.284;5.758;2022-11-12T08:50:38;19.20;;;8.30;;
43857;SDS011;29507;51.284;5.758;2022-11-12T08:53:06;18.55;;;8.65;;
43857;SDS011;29507;51.284;5.758;2022-11-12T08:55:36;19.00;;;8.45;;
43857;SDS011;29507;51.284;5.758;2022-11-12T08:58:02;19.60;;;8.13;;
43857;SDS011;29507;51.284;5.758;2022-11-12T09:00:42;23.45;;;9.02;;
43857;SDS011;29507;51.284;5.758;2022-11-12T09:03:12;23.38;;;8.63;;
43857;SDS011;29507;51.284;5.758;2022-11-12T09:05:40;27.40;;;8.90;;
43857;SDS011;29507;51.284;5.758;2022-11-12T09:08:08;19.95;;;9.70;;
43857;SDS011;29507;51.284;5.758;2022-11-12T09:10:35;19.10;;;8.68;;
43857;SDS011;29507;51.284;5.758;2022-11-12T09:13:02;18.80;;;8.93;;
43857;SDS011;29507;51.284;5.758;2022-11-12T09:15:28;19.98;;;8.88;;
43857;SDS011;29507;51.284;5.758;2022-11-12T09:17:58;19.08;;;8.85;;
43857;SDS011;29507;51.284;5.758;2022-11-12T09:20:25;21.35;;;8.70;;
43857;SDS011;29507;51.284;5.758;2022-11-12T09:22:52;18.00;;;9.00;;
43857;SDS011;29507;51.284;5.758;2022-11-12T09:25:22;17.83;;;7.45;;
43857;SDS011;29507;51.284;5.758;2022-11-12T09:27:48;15.52;;;8.48;;
43857;SDS011;29507;51.284;5.758;2022-11-12T09:30:13;14.68;;;7.32;;
43857;SDS011;29507;51.284;5.758;2022-11-12T09:32:39;18.55;;;7.57;;
43857;SDS011;29507;51.284;5.758;2022-11-12T09:35:05;17.48;;;7.63;;
43857;SDS011;29507;51.284;5.758;2022-11-12T09:37:31;17.77;;;7.70;;
43857;SDS011;29507;51.284;5.758;2022-11-12T09:39:57;16.65;;;7.10;;
43857;SDS011;29507;51.284;5.758;2022-11-12T09:42:22;16.42;;;7.50;;
43857;SDS011;29507;51.284;5.758;2022-11-12T09:45:03;13.02;;;7.63;;
43857;SDS011;29507;51.284;5.758;2022-11-12T09:47:37;12.98;;;8.05;;
43857;SDS011;29507;51.284;5.758;2022-11-12T09:52:43;16.35;;;9.23;;
43857;SDS011;29507;51.284;5.758;2022-11-12T09:55:26;18.02;;;8.68;;
43857;SDS011;29507;51.284;5.758;2022-11-12T09:58:04;16.15;;;9.20;;
43857;SDS011;29507;51.284;5.758;2022-11-12T10:01:12;13.02;;;6.97;;
43857;SDS011;29507;51.284;5.758;2022-11-12T10:06:22;11.98;;;6.90;;
43857;SDS011;29507;51.284;5.758;2022-11-12T10:08:56;11.88;;;6.25;;
43857;SDS011;29507;51.284;5.758;2022-11-12T10:18:05;8.45;;;4.60;;
43857;SDS011;29507;51.284;5.758;2022-11-12T10:20:53;10.32;;;5.72;;
43857;SDS011;29507;51.284;5.758;2022-11-12T10:23:26;11.65;;;6.68;;
43857;SDS011;29507;51.284;5.758;2022-11-12T10:26:00;10.35;;;6.15;;
43857;SDS011;29507;51.284;5.758;2022-11-12T10:29:00;12.25;;;5.50;;
43857;SDS011;29507;51.284;5.758;2022-11-12T10:31:29;9.52;;;6.07;;
43857;SDS011;29507;51.284;5.758;2022-11-12T10:37:04;8.07;;;4.63;;
43857;SDS011;29507;51.284;5.758;2022-11-12T10:39:36;10.57;;;5.30;;
43857;SDS011;29507;51.284;5.758;2022-11-12T10:42:10;11.48;;;4.80;;
43857;SDS011;29507;51.284;5.758;2022-11-12T10:44:40;9.07;;;4.65;;
43857;SDS011;29507;51.284;5.758;2022-11-12T10:52:51;9.27;;;4.78;;
43857;SDS011;29507;51.284;5.758;2022-11-12T10:55:26;10.80;;;5.10;;
43857;SDS011;29507;51.284;5.758;2022-11-12T11:00:36;8.32;;;4.53;;
43857;SDS011;29507;51.284;5.758;2022-11-12T11:03:16;10.25;;;5.15;;
43857;SDS011;29507;51.284;5.758;2022-11-12T11:06:01;7.40;;;4.00;;
43857;SDS011;29507;51.284;5.758;2022-11-12T11:13:43;6.55;;;3.72;;
43857;SDS011;29507;51.284;5.758;2022-11-12T11:16:14;6.22;;;3.95;;
43857;SDS011;29507;51.284;5.758;2022-11-12T11:18:52;8.18;;;4.15;;
43857;SDS011;29507;51.284;5.758;2022-11-12T11:24:47;5.88;;;3.55;;
43857;SDS011;29507;51.284;5.758;2022-11-12T11:35:23;7.80;;;4.32;;
43857;SDS011;29507;51.284;5.758;2022-11-12T11:40:36;9.25;;;4.07;;
43857;SDS011;29507;51.284;5.758;2022-11-12T11:51:03;7.10;;;3.90;;
43857;SDS011;29507;51.284;5.758;2022-11-12T11:56:44;6.00;;;3.90;;
43857;SDS011;29507;51.284;5.758;2022-11-12T12:07:50;7.50;;;4.00;;
43857;SDS011;29507;51.284;5.758;2022-11-12T12:10:26;8.13;;;4.40;;
43857;SDS011;29507;51.284;5.758;2022-11-12T12:13:05;8.48;;;3.55;;
43857;SDS011;29507;51.284;5.758;2022-11-12T12:18:05;7.85;;;3.83;;
43857;SDS011;29507;51.284;5.758;2022-11-12T12:23:19;10.43;;;3.80;;
43857;SDS011;29507;51.284;5.758;2022-11-12T12:25:58;9.45;;;4.57;;
43857;SDS011;29507;51.284;5.758;2022-11-12T12:30:53;5.88;;;3.78;;
43857;SDS011;29507;51.284;5.758;2022-11-12T12:41:58;6.97;;;4.15;;
43857;SDS011;29507;51.284;5.758;2022-11-12T12:44:29;5.80;;;3.70;;
43857;SDS011;29507;51.284;5.758;2022-11-12T12:47:23;7.13;;;3.95;;
43857;SDS011;29507;51.284;5.758;2022-11-12T12:49:52;7.65;;;3.70;;
43857;SDS011;29507;51.284;5.758;2022-11-12T12:52:18;7.50;;;3.78;;
43857;SDS011;29507;51.284;5.758;2022-11-12T12:57:29;6.72;;;3.85;;
43857;SDS011;29507;51.284;5.758;2022-11-12T13:02:56;6.72;;;3.28;;
43857;SDS011;29507;51.284;5.758;2022-11-12T13:05:29;5.50;;;3.17;;
43857;SDS011;29507;51.284;5.758;2022-11-12T13:08:05;7.85;;;3.00;;
43857;SDS011;29507;51.284;5.758;2022-11-12T13:15:44;6.55;;;3.25;;
43857;SDS011;29507;51.284;5.758;2022-11-12T13:18:10;5.55;;;3.40;;
43857;SDS011;29507;51.284;5.758;2022-11-12T13:21:35;5.05;;;3.38;;
43857;SDS011;29507;51.284;5.758;2022-11-12T13:23:56;6.40;;;3.20;;
43857;SDS011;29507;51.284;5.758;2022-11-12T13:26:47;7.35;;;3.33;;
43857;SDS011;29507;51.284;5.758;2022-11-12T13:29:23;5.18;;;3.33;;
43857;SDS011;29507;51.284;5.758;2022-11-12T13:45:56;5.43;;;3.42;;
43857;SDS011;29507;51.284;5.758;2022-11-12T13:51:13;6.55;;;3.95;;
43857;SDS011;29507;51.284;5.758;2022-11-12T13:53:41;8.35;;;4.28;;
43857;SDS011;29507;51.284;5.758;2022-11-12T13:56:09;7.97;;;3.90;;
43857;SDS011;29507;51.284;5.758;2022-11-12T13:58:35;6.03;;;4.07;;
43857;SDS011;29507;51.284;5.758;2022-11-12T14:01:04;6.33;;;3.90;;
43857;SDS011;29507;51.284;5.758;2022-11-12T14:03:43;8.35;;;4.30;;
43857;SDS011;29507;51.284;5.758;2022-11-12T14:06:16;7.75;;;4.20;;
43857;SDS011;29507;51.284;5.758;2022-11-12T14:14:22;6.75;;;4.30;;
43857;SDS011;29507;51.284;5.758;2022-11-12T14:16:59;9.45;;;4.53;;
43857;SDS011;29507;51.284;5.758;2022-11-12T14:19:54;11.00;;;3.90;;
43857;SDS011;29507;51.284;5.758;2022-11-12T14:22:25;6.88;;;4.00;;
43857;SDS011;29507;51.284;5.758;2022-11-12T14:24:59;9.13;;;3.42;;
43857;SDS011;29507;51.284;5.758;2022-11-12T14:30:06;6.13;;;3.33;;
43857;SDS011;29507;51.284;5.758;2022-11-12T14:32:35;6.88;;;3.80;;
43857;SDS011;29507;51.284;5.758;2022-11-12T14:40:55;6.40;;;3.33;;
43857;SDS011;29507;51.284;5.758;2022-11-12T14:46:03;9.98;;;3.38;;
43857;SDS011;29507;51.284;5.758;2022-11-12T14:51:14;7.50;;;4.03;;
43857;SDS011;29507;51.284;5.758;2022-11-12T14:53:50;11.57;;;3.78;;
43857;SDS011;29507;51.284;5.758;2022-11-12T14:59:08;6.47;;;3.45;;
43857;SDS011;29507;51.284;5.758;2022-11-12T15:01:37;5.03;;;3.05;;
43857;SDS011;29507;51.284;5.758;2022-11-12T15:04:24;7.57;;;3.75;;
43857;SDS011;29507;51.284;5.758;2022-11-12T15:06:50;9.38;;;3.47;;
43857;SDS011;29507;51.284;5.758;2022-11-12T15:09:18;9.47;;;3.80;;
43857;SDS011;29507;51.284;5.758;2022-11-12T15:11:59;6.07;;;3.25;;
43857;SDS011;29507;51.284;5.758;2022-11-12T15:14:27;6.80;;;3.53;;
43857;SDS011;29507;51.284;5.758;2022-11-12T15:16:52;10.15;;;3.80;;
43857;SDS011;29507;51.284;5.758;2022-11-12T15:19:19;9.77;;;3.67;;
43857;SDS011;29507;51.284;5.758;2022-11-12T15:21:48;7.25;;;3.13;;
43857;SDS011;29507;51.284;5.758;2022-11-12T15:24:22;7.63;;;3.35;;
43857;SDS011;29507;51.284;5.758;2022-11-12T15:26:57;7.75;;;3.45;;
43857;SDS011;29507;51.284;5.758;2022-11-12T15:29:33;6.07;;;3.00;;
43857;SDS011;29507;51.284;5.758;2022-11-12T15:32:27;8.43;;;4.45;;
43857;SDS011;29507;51.284;5.758;2022-11-12T15:34:48;9.82;;;4.32;;
43857;SDS011;29507;51.284;5.758;2022-11-12T15:37:19;6.05;;;3.53;;
43857;SDS011;29507;51.284;5.758;2022-11-12T15:39:50;8.18;;;3.88;;
43857;SDS011;29507;51.284;5.758;2022-11-12T15:42:26;11.80;;;4.65;;
43857;SDS011;29507;51.284;5.758;2022-11-12T15:45:03;7.70;;;3.55;;
43857;SDS011;29507;51.284;5.758;2022-11-12T15:47:49;5.78;;;3.88;;
43857;SDS011;29507;51.284;5.758;2022-11-12T15:50:16;7.85;;;3.63;;
43857;SDS011;29507;51.284;5.758;2022-11-12T15:52:44;7.15;;;3.75;;
43857;SDS011;29507;51.284;5.758;2022-11-12T15:55:10;8.57;;;3.55;;
43857;SDS011;29507;51.284;5.758;2022-11-12T15:57:40;9.80;;;4.22;;
43857;SDS011;29507;51.284;5.758;2022-11-12T16:00:13;8.32;;;4.88;;
43857;SDS011;29507;51.284;5.758;2022-11-12T16:02:39;11.10;;;4.38;;
43857;SDS011;29507;51.284;5.758;2022-11-12T16:05:13;7.68;;;4.30;;
43857;SDS011;29507;51.284;5.758;2022-11-12T16:07:40;10.00;;;4.40;;
43857;SDS011;29507;51.284;5.758;2022-11-12T16:10:06;12.23;;;4.80;;
43857;SDS011;29507;51.284;5.758;2022-11-12T16:12:32;9.32;;;4.43;;
43857;SDS011;29507;51.284;5.758;2022-11-12T16:14:59;12.48;;;4.90;;
43857;SDS011;29507;51.284;5.758;2022-11-12T16:17:25;11.20;;;4.82;;
43857;SDS011;29507;51.284;5.758;2022-11-12T16:19:51;12.15;;;4.80;;
43857;SDS011;29507;51.284;5.758;2022-11-12T16:22:17;10.98;;;5.07;;
43857;SDS011;29507;51.284;5.758;2022-11-12T16:24:42;11.55;;;4.80;;
43857;SDS011;29507;51.284;5.758;2022-11-12T16:27:12;10.48;;;5.88;;
43857;SDS011;29507;51.284;5.758;2022-11-12T16:29:39;13.15;;;6.07;;
43857;SDS011;29507;51.284;5.758;2022-11-12T16:32:05;12.07;;;5.63;;
43857;SDS011;29507;51.284;5.758;2022-11-12T16:34:31;11.38;;;5.82;;
43857;SDS011;29507;51.284;5.758;2022-11-12T16:36:56;9.80;;;5.13;;
43857;SDS011;29507;51.284;5.758;2022-11-12T16:39:23;12.13;;;5.70;;
43857;SDS011;29507;51.284;5.758;2022-11-12T16:41:49;16.95;;;7.25;;
43857;SDS011;29507;51.284;5.758;2022-11-12T16:44:15;16.90;;;7.78;;
43857;SDS011;29507;51.284;5.758;2022-11-12T16:46:40;13.60;;;7.45;;
43857;SDS011;29507;51.284;5.758;2022-11-12T16:49:14;18.35;;;8.27;;
43857;SDS011;29507;51.284;5.758;2022-11-12T16:51:40;14.50;;;7.38;;
43857;SDS011;29507;51.284;5.758;2022-11-12T16:54:06;13.05;;;7.03;;
43857;SDS011;29507;51.284;5.758;2022-11-12T16:56:32;20.23;;;9.80;;
43857;SDS011;29507;51.284;5.758;2022-11-12T16:58:58;21.02;;;11.05;;
43857;SDS011;29507;51.284;5.758;2022-11-12T17:01:27;19.90;;;10.80;;
43857;SDS011;29507;51.284;5.758;2022-11-12T17:03:54;18.83;;;10.15;;
43857;SDS011;29507;51.284;5.758;2022-11-12T17:06:21;17.90;;;9.60;;